Time;durP1;ratioP1;P1;durP2;ratioP2;P2;SDS_P1;SDS_P2;PMS_P1;PMS_P2;Temp;Humidity;BMP_temperature;BMP_pressure;BME280_temperature;BME280_humidity;BME280_pressure;Samples;Min_cycle;Max_cycle;Signal;HPM_P1;HPM_P2
2022/09/27 00:00:23;;;;;;;2.37;1.80;;;17.10;65.10;18.30;98731.00;;;;4969263;28;20292;-44
2022/09/27 00:02:50;;;;;;;2.10;1.50;;;17.10;65.20;18.30;98741.00;;;;4970547;28;20220;-43
2022/09/27 00:05:16;;;;;;;2.47;1.60;;;17.10;65.10;18.30;98748.00;;;;4969274;28;20215;-43
2022/09/27 00:07:42;;;;;;;1.80;1.70;;;17.10;65.20;18.30;98748.00;;;;4969068;28;20642;-42
2022/09/27 00:10:08;;;;;;;2.10;1.80;;;17.10;65.20;18.30;98750.00;;;;4970143;28;20175;-42
2022/09/27 00:12:34;;;;;;;1.70;1.60;;;17.10;65.20;18.30;98748.00;;;;4969682;28;20561;-43
2022/09/27 00:15:01;;;;;;;1.60;1.50;;;17.10;65.20;18.30;98738.00;;;;4970174;28;20198;-43
2022/09/27 00:17:27;;;;;;;1.70;1.60;;;17.10;65.20;18.30;98758.00;;;;4969274;28;20181;-42
2022/09/27 00:19:55;;;;;;;1.67;1.57;;;17.10;65.20;18.30;98760.00;;;;4970138;28;20348;-42
2022/09/27 00:22:22;;;;;;;2.13;1.70;;;17.10;65.90;18.30;98771.00;;;;4970409;28;20169;-42
2022/09/27 00:24:49;;;;;;;1.80;1.70;;;17.10;65.20;18.30;98772.00;;;;4969875;28;20697;-41
2022/09/27 00:27:15;;;;;;;1.70;1.60;;;17.10;65.20;18.30;98781.00;;;;4970059;28;20178;-43
2022/09/27 00:29:40;;;;;;;1.53;1.43;;;17.10;65.40;18.30;98780.00;;;;4969971;28;20181;-42
2022/09/27 00:32:06;;;;;;;1.70;1.60;;;17.10;65.20;18.30;98778.00;;;;4970007;28;20628;-43
2022/09/27 00:34:32;;;;;;;1.80;1.70;;;17.00;65.20;18.20;98781.00;;;;4969237;28;20276;-43
2022/09/27 00:36:58;;;;;;;2.43;1.60;;;17.10;65.30;18.30;98792.00;;;;4970047;28;20301;-43
2022/09/27 00:39:23;;;;;;;1.90;1.70;;;17.10;65.40;18.30;98796.00;;;;4969826;28;20261;-41
2022/09/27 00:41:49;;;;;;;2.10;1.80;;;17.10;65.60;18.20;98784.00;;;;4969711;28;20185;-42
2022/09/27 00:44:24;;;;;;;2.37;1.67;;;17.00;65.80;18.20;98786.00;;;;4967788;28;20201;-43
2022/09/27 00:47:26;;;;;;;2.23;1.80;;;17.00;65.60;18.20;98804.00;;;;4969608;28;20296;-44
2022/09/27 00:50:01;;;;;;;1.80;1.50;;;17.10;65.80;18.20;98788.00;;;;4969550;28;20620;-41
2022/09/27 00:53:01;;;;;;;1.70;1.60;;;17.10;65.80;18.20;98787.00;;;;4968383;28;20187;-42
2022/09/27 00:55:32;;;;;;;1.70;1.60;;;17.10;65.60;18.20;98786.00;;;;4946169;28;20209;-42
2022/09/27 00:57:58;;;;;;;3.03;1.80;;;17.00;65.50;18.10;98785.00;;;;4952157;28;20185;-41
2022/09/27 01:00:24;;;;;;;4.00;1.80;;;17.00;65.40;18.10;98786.00;;;;4968317;28;20288;-42
2022/09/27 01:02:51;;;;;;;3.17;1.90;;;17.00;65.60;18.20;98786.00;;;;4969319;28;20165;-43
2022/09/27 01:05:19;;;;;;;2.10;1.80;;;17.00;65.60;18.20;98782.00;;;;4967718;28;20185;-43
2022/09/27 01:07:45;;;;;;;1.70;1.60;;;17.00;65.50;18.20;98783.00;;;;4968753;28;20228;-42
2022/09/27 01:10:11;;;;;;;2.53;1.53;;;17.00;65.50;18.20;98778.00;;;;4970123;28;20186;-43
2022/09/27 01:13:22;;;;;;;2.27;1.60;;;17.00;65.50;18.20;98783.00;;;;4969500;28;20183;-42
2022/09/27 01:16:09;;;;;;;2.70;1.60;;;17.00;65.40;18.10;98793.00;;;;4967574;28;20909;-43
2022/09/27 01:19:01;;;;;;;1.80;1.67;;;17.00;65.40;18.10;98800.00;;;;4968036;28;20187;-42
2022/09/27 01:21:54;;;;;;;2.23;1.53;;;17.00;65.50;18.10;98801.00;;;;4968303;28;20586;-42
2022/09/27 01:24:36;;;;;;;1.60;1.50;;;16.90;65.50;18.10;98730.00;;;;4970780;28;20189;-43
2022/09/27 01:27:58;;;;;;;2.60;1.70;;;16.90;65.60;18.10;98808.00;;;;4970498;28;20786;-42
2022/09/27 01:30:44;;;;;;;2.50;1.67;;;16.90;65.50;18.10;98809.00;;;;4968588;28;20211;-43
2022/09/27 01:33:35;;;;;;;1.80;1.70;;;17.00;65.60;18.10;98805.00;;;;4967962;28;20153;-48
2022/09/27 01:36:19;;;;;;;2.37;1.40;;;16.90;65.50;18.10;98808.00;;;;4968133;28;20196;-43
2022/09/27 01:39:03;;;;;;;1.57;1.47;;;16.90;65.40;18.10;98806.00;;;;4968130;28;20200;-42
2022/09/27 01:42:02;;;;;;;1.67;1.40;;;16.90;65.60;18.10;98804.00;;;;4969231;28;20161;-42
2022/09/27 01:44:41;;;;;;;1.83;1.67;;;16.90;65.60;18.10;98814.00;;;;4967350;28;20193;-42
2022/09/27 01:47:15;;;;;;;1.90;1.60;;;16.90;65.30;18.10;98799.00;;;;4969091;28;20658;-42
2022/09/27 01:50:01;;;;;;;3.40;1.60;;;16.90;65.40;18.10;98813.00;;;;4967739;28;20161;-43
2022/09/27 01:52:33;;;;;;;2.03;1.53;;;16.90;65.40;18.10;98795.00;;;;4967584;28;20255;-42
2022/09/27 01:54:59;;;;;;;1.53;1.40;;;16.90;66.20;18.00;98821.00;;;;4967064;28;20308;-41
2022/09/27 01:57:29;;;;;;;1.57;1.47;;;16.90;65.40;18.00;98804.00;;;;4967240;28;20182;-43
2022/09/27 02:00:05;;;;;;;1.60;1.50;;;16.90;65.40;18.10;98815.00;;;;4967393;28;20202;-42
2022/09/27 02:02:32;;;;;;;1.60;1.50;;;16.90;65.40;18.10;98816.00;;;;4967639;28;20161;-42
2022/09/27 02:05:00;;;;;;;1.60;1.50;;;16.90;65.50;18.00;98807.00;;;;4967085;28;20182;-42
2022/09/27 02:07:36;;;;;;;1.40;1.30;;;16.90;65.50;18.00;98818.00;;;;4967508;28;20173;-43
2022/09/27 02:10:15;;;;;;;1.60;1.50;;;16.90;65.40;18.00;98816.00;;;;4968081;28;20268;-43
2022/09/27 02:13:09;;;;;;;3.13;1.70;;;16.90;65.50;18.00;98820.00;;;;4968030;28;20181;-42
2022/09/27 02:16:12;;;;;;;2.23;1.63;;;16.80;65.30;18.00;98818.00;;;;4962259;28;20217;-42
2022/09/27 02:19:05;;;;;;;1.60;1.50;;;16.80;65.30;18.00;98826.00;;;;4958988;28;20262;-42
2022/09/27 02:22:03;;;;;;;2.13;1.77;;;16.80;65.40;18.00;98822.00;;;;4968660;28;20588;-42
2022/09/27 02:24:41;;;;;;;2.80;1.57;;;16.80;65.30;18.00;98826.00;;;;4960104;28;20196;-41
2022/09/27 02:27:47;;;;;;;2.03;1.70;;;16.80;65.30;18.00;98817.00;;;;4933078;28;20173;-42
2022/09/27 02:30:14;;;;;;;1.67;1.50;;;16.80;65.30;17.90;98841.00;;;;4967543;28;20154;-43
2022/09/27 02:32:40;;;;;;;1.50;1.40;;;16.80;65.40;18.00;98835.00;;;;4968366;28;20264;-41
2022/09/27 02:35:18;;;;;;;1.60;1.50;;;16.80;65.40;18.00;98829.00;;;;4967500;28;20536;-41
2022/09/27 02:37:44;;;;;;;1.60;1.50;;;16.80;65.30;18.00;98833.00;;;;4952967;29;20229;-42
2022/09/27 02:40:10;;;;;;;1.57;1.47;;;16.80;65.30;18.00;98842.00;;;;4967879;28;20203;-42
2022/09/27 02:42:36;;;;;;;1.80;1.40;;;16.80;65.30;18.00;98834.00;;;;4952943;29;20173;-42
2022/09/27 02:45:05;;;;;;;1.70;1.30;;;16.80;65.30;18.00;98840.00;;;;4952337;29;20734;-42
2022/09/27 02:47:51;;;;;;;1.40;1.30;;;16.70;65.30;18.00;98839.00;;;;4951347;29;20697;-42
2022/09/27 02:50:40;;;;;;;1.70;1.60;;;16.80;65.40;18.00;98839.00;;;;4952246;28;20293;-41
2022/09/27 02:53:24;;;;;;;1.57;1.47;;;16.80;65.30;17.90;98833.00;;;;4967615;28;20178;-42
2022/09/27 02:56:38;;;;;;;1.50;1.40;;;16.80;65.40;17.90;98850.00;;;;4952278;29;20877;-43
2022/09/27 02:59:17;;;;;;;1.60;1.50;;;16.80;65.40;17.90;98846.00;;;;4963792;28;20655;-42
2022/09/27 03:01:55;;;;;;;1.30;1.20;;;16.80;65.40;17.90;98847.00;;;;4966623;28;20182;-42
2022/09/27 03:04:43;;;;;;;1.67;1.40;;;16.80;65.40;17.90;98831.00;;;;4966711;28;20196;-42
2022/09/27 03:07:09;;;;;;;1.63;1.53;;;16.80;65.30;17.90;98838.00;;;;4967008;28;20294;-41
2022/09/27 03:09:47;;;;;;;1.63;1.50;;;16.80;65.30;17.90;98855.00;;;;4966806;28;20202;-41
2022/09/27 03:12:13;;;;;;;1.63;1.50;;;16.80;65.40;17.90;98853.00;;;;4952480;29;20170;-41
2022/09/27 03:14:39;;;;;;;1.50;1.27;;;16.70;65.20;17.90;98859.00;;;;4966763;28;20212;-41
2022/09/27 03:17:05;;;;;;;1.47;1.37;;;16.80;65.30;17.90;98862.00;;;;4952175;29;20182;-42
2022/09/27 03:19:31;;;;;;;1.57;1.40;;;16.80;65.30;17.90;98855.00;;;;4952468;29;20201;-40
2022/09/27 03:21:57;;;;;;;1.43;1.33;;;16.70;65.20;17.70;98863.00;;;;4951793;29;20254;-42
2022/09/27 03:24:22;;;;;;;1.63;1.50;;;16.70;65.30;17.90;98859.00;;;;4952808;29;20562;-43
2022/09/27 03:26:49;;;;;;;1.50;1.40;;;16.70;65.40;17.90;98866.00;;;;4967184;28;20658;-42
2022/09/27 03:29:15;;;;;;;3.27;1.70;;;16.70;65.70;17.40;98807.00;;;;4951726;29;20647;-42
2022/09/27 03:31:41;;;;;;;2.67;1.30;;;16.70;65.80;17.80;98877.00;;;;4951798;29;20178;-43
2022/09/27 03:34:07;;;;;;;2.17;1.40;;;16.70;65.80;17.80;98875.00;;;;4965756;28;20674;-42
2022/09/27 03:36:33;;;;;;;1.87;1.47;;;16.70;65.70;17.80;98877.00;;;;4951698;29;20186;-42
2022/09/27 03:38:58;;;;;;;2.67;1.70;;;16.70;65.50;17.80;98873.00;;;;4951004;28;20616;-42
2022/09/27 03:41:24;;;;;;;5.67;1.67;;;16.70;65.50;17.80;98878.00;;;;4951466;29;20178;-44
2022/09/27 03:43:50;;;;;;;3.27;1.63;;;16.70;65.60;17.80;98877.00;;;;4948662;29;20213;-43
2022/09/27 03:46:16;;;;;;;2.93;1.60;;;16.70;65.50;17.80;98876.00;;;;4951358;29;20171;-44
2022/09/27 03:48:41;;;;;;;2.43;1.60;;;16.70;65.70;17.80;98870.00;;;;4951947;29;20732;-41
2022/09/27 03:51:11;;;;;;;2.33;1.50;;;16.60;65.60;17.80;98870.00;;;;4951846;29;20674;-43
2022/09/27 03:53:36;;;;;;;2.13;1.53;;;16.70;65.70;17.80;98881.00;;;;4951181;28;20272;-44
2022/09/27 03:56:02;;;;;;;1.73;1.57;;;16.70;65.60;17.80;98885.00;;;;4951524;29;20292;-42
2022/09/27 03:58:28;;;;;;;1.73;1.50;;;16.70;66.40;17.80;98890.00;;;;4952043;29;20208;-43
2022/09/27 04:00:53;;;;;;;1.60;1.50;;;16.70;65.40;17.80;98884.00;;;;4951959;29;20510;-43
2022/09/27 04:03:19;;;;;;;1.53;1.43;;;16.60;65.20;17.80;98892.00;;;;4951399;29;20643;-41
2022/09/27 04:05:45;;;;;;;2.77;1.50;;;16.60;65.30;17.80;98896.00;;;;4951192;29;20200;-42
2022/09/27 04:08:12;;;;;;;2.00;1.80;;;16.60;65.20;17.80;98885.00;;;;4951717;29;20197;-42
2022/09/27 04:10:38;;;;;;;1.87;1.67;;;16.60;65.10;17.80;98892.00;;;;4951805;29;20178;-42
2022/09/27 04:13:04;;;;;;;1.70;1.60;;;16.60;65.20;17.80;98894.00;;;;4951314;29;20646;-43
2022/09/27 04:15:30;;;;;;;2.13;1.70;;;16.70;66.00;17.80;98902.00;;;;4951101;29;20681;-43
2022/09/27 04:17:55;;;;;;;1.53;1.43;;;16.60;65.10;17.80;98896.00;;;;4951493;29;20170;-40
2022/09/27 04:20:21;;;;;;;2.30;1.60;;;16.60;65.00;17.80;98904.00;;;;4951708;29;20203;-43
2022/09/27 04:22:47;;;;;;;1.70;1.60;;;16.60;65.00;17.80;98899.00;;;;4951770;29;20181;-41
2022/09/27 04:25:12;;;;;;;1.87;1.67;;;16.60;65.00;17.80;98896.00;;;;4950891;29;20713;-42
2022/09/27 04:27:44;;;;;;;1.60;1.50;;;16.60;65.00;17.80;98899.00;;;;4951385;28;20176;-42
2022/09/27 04:30:10;;;;;;;1.70;1.60;;;16.60;65.00;17.70;98902.00;;;;4951160;29;20166;-42
2022/09/27 04:32:41;;;;;;;3.30;1.70;;;16.50;64.90;17.80;98899.00;;;;4950844;29;20673;-42
2022/09/27 04:37:53;;;;;;;2.03;1.57;;;16.50;65.00;17.70;98903.00;;;;4949317;29;20189;-42
2022/09/27 04:40:21;;;;;;;2.37;1.60;;;16.50;65.20;17.70;98910.00;;;;4950000;29;20191;-41
2022/09/27 04:42:47;;;;;;;2.10;1.53;;;16.50;65.10;17.70;98907.00;;;;4950501;29;20586;-43
2022/09/27 04:45:13;;;;;;;3.30;1.50;;;16.50;65.20;17.70;98916.00;;;;4950524;29;20702;-43
2022/09/27 04:47:43;;;;;;;5.93;1.70;;;16.50;65.30;17.70;98915.00;;;;4951243;29;20178;-43
2022/09/27 04:50:09;;;;;;;4.80;1.87;;;16.50;65.50;17.70;98919.00;;;;4950606;28;20185;-44
2022/09/27 04:52:36;;;;;;;6.13;1.73;;;16.50;65.40;17.70;98917.00;;;;4950628;29;20229;-44
2022/09/27 04:55:01;;;;;;;4.80;1.70;;;16.50;65.60;17.70;98917.00;;;;4950721;29;20271;-42
2022/09/27 04:57:27;;;;;;;6.27;1.90;;;16.50;65.40;17.70;98927.00;;;;4949618;29;20666;-42
2022/09/27 04:59:53;;;;;;;6.23;1.93;;;16.50;65.60;17.70;98925.00;;;;4950755;29;20193;-44
2022/09/27 05:02:19;;;;;;;5.37;1.63;;;16.50;65.60;17.70;98928.00;;;;4950508;29;20174;-42
2022/09/27 05:04:45;;;;;;;5.93;1.90;;;16.50;65.70;17.70;98937.00;;;;4950322;28;20194;-43
2022/09/27 05:07:10;;;;;;;8.33;1.43;;;16.50;65.70;17.70;98940.00;;;;4951063;29;20162;-41
2022/09/27 05:09:36;;;;;;;1.70;1.50;;;16.50;65.60;17.70;98946.00;;;;4950744;29;20535;-41
2022/09/27 05:12:04;;;;;;;3.63;2.10;;;16.50;65.60;17.70;98944.00;;;;4951132;29;20627;-42
2022/09/27 05:14:29;;;;;;;2.93;1.70;;;16.50;65.60;17.70;98947.00;;;;4948887;28;20197;-42
2022/09/27 05:16:55;;;;;;;3.77;1.53;;;16.50;65.60;17.70;98941.00;;;;4950630;29;20162;-42
2022/09/27 05:19:21;;;;;;;5.03;1.60;;;16.50;65.60;17.70;98944.00;;;;4950531;29;20280;-41
2022/09/27 05:21:47;;;;;;;4.73;1.80;;;16.50;65.50;17.70;98947.00;;;;4950584;29;20188;-43
2022/09/27 05:24:13;;;;;;;3.63;1.90;;;16.50;65.50;17.60;98950.00;;;;4949915;29;20205;-41
2022/09/27 05:26:40;;;;;;;4.83;1.60;;;16.50;65.50;17.60;98864.00;;;;4949310;29;20220;-42
2022/09/27 05:29:06;;;;;;;2.67;1.60;;;16.50;65.40;17.60;98953.00;;;;4950672;29;20521;-42
2022/09/27 05:31:32;;;;;;;2.47;1.43;;;16.50;65.40;17.60;98957.00;;;;4949263;29;20180;-42
2022/09/27 05:33:57;;;;;;;2.80;1.80;;;16.40;65.30;17.60;98967.00;;;;4950087;29;20244;-42
2022/09/27 05:36:23;;;;;;;1.87;1.40;;;16.40;65.30;17.60;98963.00;;;;4949978;29;20209;-42
2022/09/27 05:38:49;;;;;;;4.63;1.60;;;16.40;65.40;17.60;98955.00;;;;4950079;29;20218;-42
2022/09/27 05:41:15;;;;;;;6.17;1.70;;;16.50;65.50;17.60;98972.00;;;;4949883;29;20161;-42
2022/09/27 05:43:41;;;;;;;2.37;1.60;;;16.40;65.40;17.60;98972.00;;;;4950235;29;20178;-42
2022/09/27 05:46:06;;;;;;;3.20;1.70;;;16.40;65.50;17.40;98980.00;;;;4950009;29;20572;-42
2022/09/27 05:48:32;;;;;;;2.20;1.63;;;16.40;65.50;17.60;98976.00;;;;4949028;29;20670;-42
2022/09/27 05:50:58;;;;;;;1.97;1.60;;;16.40;66.30;17.60;98989.00;;;;4950208;29;20177;-41
2022/09/27 05:53:24;;;;;;;1.47;1.37;;;16.40;65.50;17.60;98984.00;;;;4950383;29;20166;-42
2022/09/27 05:55:50;;;;;;;3.73;1.70;;;16.40;65.50;17.60;98985.00;;;;4949832;29;20197;-42
2022/09/27 05:58:16;;;;;;;1.33;1.23;;;16.40;65.50;17.60;98993.00;;;;4951012;29;20206;-43
2022/09/27 06:00:42;;;;;;;3.07;1.70;;;16.40;65.50;17.60;98988.00;;;;4950613;29;20228;-43
2022/09/27 06:03:09;;;;;;;1.60;1.40;;;16.40;65.50;17.60;98968.00;;;;4950829;28;20174;-43
2022/09/27 06:05:37;;;;;;;2.00;1.60;;;16.40;65.50;17.50;98987.00;;;;4952105;28;20535;-41
2022/09/27 06:08:05;;;;;;;4.40;1.70;;;16.40;66.30;17.60;98987.00;;;;4954219;29;20169;-42
2022/09/27 06:10:31;;;;;;;2.13;1.70;;;16.40;65.50;17.60;98986.00;;;;4954080;29;20194;-41
2022/09/27 06:13:05;;;;;;;3.00;1.60;;;16.40;65.50;17.60;98983.00;;;;4953663;29;20181;-41
2022/09/27 06:15:32;;;;;;;2.10;1.50;;;16.30;65.40;17.50;98982.00;;;;4953220;29;20225;-42
2022/09/27 06:18:06;;;;;;;1.57;1.47;;;16.40;65.50;17.50;98983.00;;;;4952277;29;20174;-42
2022/09/27 06:20:33;;;;;;;2.80;1.50;;;16.30;65.40;17.50;98986.00;;;;4954122;29;20226;-42
2022/09/27 06:23:10;;;;;;;1.83;1.53;;;16.30;65.40;17.50;98982.00;;;;4953532;29;20174;-42
2022/09/27 06:25:36;;;;;;;1.80;1.40;;;16.30;65.40;17.50;98985.00;;;;4952646;29;20565;-43
2022/09/27 06:28:03;;;;;;;1.70;1.60;;;16.30;65.40;17.50;98991.00;;;;4953266;29;20249;-43
2022/09/27 06:30:29;;;;;;;2.47;1.60;;;16.30;65.50;17.50;98986.00;;;;4953556;29;20237;-44
2022/09/27 06:33:01;;;;;;;1.83;1.40;;;16.30;65.40;17.50;98972.00;;;;4952982;29;20181;-42
2022/09/27 06:35:27;;;;;;;1.43;1.33;;;16.30;65.40;17.50;98986.00;;;;4953172;29;20568;-42
2022/09/27 06:37:54;;;;;;;1.80;1.20;;;16.30;65.40;17.50;98976.00;;;;4953761;29;20177;-42
2022/09/27 06:40:21;;;;;;;1.63;1.30;;;16.30;65.40;17.50;98985.00;;;;4953464;29;20690;-41
2022/09/27 06:42:47;;;;;;;1.33;1.23;;;16.30;65.40;17.50;98984.00;;;;4953752;29;20682;-42
2022/09/27 06:45:13;;;;;;;2.37;1.30;;;16.30;66.20;17.40;98985.00;;;;4952672;29;20303;-41
2022/09/27 06:47:39;;;;;;;2.10;1.53;;;16.30;65.40;17.50;98992.00;;;;4967553;28;20753;-42
2022/09/27 06:50:05;;;;;;;1.97;1.50;;;16.30;65.30;17.50;98995.00;;;;4954894;28;20250;-42
2022/09/27 06:52:35;;;;;;;1.43;1.33;;;16.30;65.40;17.40;99002.00;;;;4972333;28;20179;-42
2022/09/27 06:55:02;;;;;;;1.40;1.23;;;16.30;65.40;17.50;99003.00;;;;4971941;28;20201;-43
2022/09/27 07:00:27;;;;;;;1.30;1.20;;;16.20;66.10;17.40;99003.00;;;;4972254;28;20255;-43
2022/09/27 07:02:59;;;;;;;1.40;1.30;;;16.30;65.40;17.40;99011.00;;;;4972266;28;20153;-42
2022/09/27 07:05:27;;;;;;;1.70;1.50;;;16.20;66.10;17.40;99015.00;;;;4971465;28;20203;-42
2022/09/27 07:07:56;;;;;;;1.23;1.13;;;16.20;65.30;17.40;99014.00;;;;4972233;28;20830;-41
2022/09/27 07:10:29;;;;;;;1.73;1.40;;;16.20;65.30;17.40;99013.00;;;;4971937;28;20176;-42
2022/09/27 07:12:55;;;;;;;1.40;1.30;;;16.20;65.20;17.40;99029.00;;;;4971968;28;20567;-42
2022/09/27 07:15:21;;;;;;;1.60;1.33;;;16.20;65.20;17.40;99025.00;;;;4971132;28;20610;-42
2022/09/27 07:17:54;;;;;;;1.40;1.30;;;16.20;65.30;17.40;99032.00;;;;4971910;28;20272;-44
2022/09/27 07:20:20;;;;;;;1.53;1.43;;;16.20;65.20;17.40;99036.00;;;;4970715;28;20189;-43
2022/09/27 07:22:46;;;;;;;1.40;1.30;;;16.20;65.30;17.40;99042.00;;;;4972062;28;20420;-43
2022/09/27 07:25:11;;;;;;;1.30;1.20;;;16.20;65.30;17.40;99051.00;;;;4970568;28;20184;-42
2022/09/27 07:27:40;;;;;;;1.40;1.30;;;16.20;65.30;17.40;99052.00;;;;4971747;28;20173;-43
2022/09/27 07:30:07;;;;;;;1.20;1.10;;;16.20;66.10;17.30;99070.00;;;;4971709;28;20177;-43
2022/09/27 07:32:36;;;;;;;1.17;1.17;;;16.20;65.40;17.40;99064.00;;;;4971876;28;20260;-43
2022/09/27 07:35:06;;;;;;;1.47;1.37;;;16.20;65.20;17.40;99057.00;;;;4971042;28;20193;-43
2022/09/27 07:37:33;;;;;;;1.43;1.17;;;16.20;65.20;17.30;99062.00;;;;4970289;28;20189;-43
2022/09/27 07:40:00;;;;;;;1.30;1.20;;;16.20;65.30;17.30;99062.00;;;;4971425;28;20632;-43
2022/09/27 07:42:27;;;;;;;1.40;1.30;;;16.20;65.20;17.30;99061.00;;;;4970565;28;20347;-43
2022/09/27 07:44:56;;;;;;;1.20;1.10;;;16.10;65.00;17.30;99061.00;;;;4970797;28;20219;-43
2022/09/27 07:47:23;;;;;;;6.93;1.60;;;16.20;65.30;17.30;99062.00;;;;4970560;28;20169;-42
2022/09/27 07:49:51;;;;;;;17.77;2.53;;;16.20;65.30;17.00;99047.00;;;;4971304;28;20195;-41
2022/09/27 07:52:18;;;;;;;6.33;1.50;;;16.10;65.30;17.20;99059.00;;;;4969920;28;20472;-42
2022/09/27 07:54:44;;;;;;;6.33;1.60;;;16.10;65.30;17.30;99065.00;;;;4970284;28;20204;-42
2022/09/27 07:57:10;;;;;;;9.90;1.70;;;16.20;65.30;17.20;99063.00;;;;4970395;28;20188;-42
2022/09/27 07:59:36;;;;;;;6.17;1.60;;;16.20;65.40;17.30;99070.00;;;;4970318;28;20200;-41
2022/09/27 08:02:02;;;;;;;6.87;1.53;;;16.30;65.60;17.30;99080.00;;;;4971192;28;20547;-41
2022/09/27 08:04:28;;;;;;;4.77;1.60;;;16.40;65.50;17.30;99078.00;;;;4776158;28;20285;-42
2022/09/27 08:06:54;;;;;;;7.47;1.70;;;16.50;65.50;17.40;99076.00;;;;4970069;28;20256;-41
2022/09/27 08:09:19;;;;;;;3.83;1.40;;;16.70;65.00;17.40;99077.00;;;;4969902;28;20597;-43
2022/09/27 08:11:45;;;;;;;2.37;1.47;;;16.80;64.90;17.50;99080.00;;;;4970988;28;20181;-43
2022/09/27 08:14:11;;;;;;;8.33;1.80;;;17.00;65.00;17.50;99090.00;;;;4970960;28;20328;-41
2022/09/27 08:16:37;;;;;;;4.80;1.60;;;17.10;64.80;17.60;99092.00;;;;4968739;28;20373;-42
2022/09/27 08:19:03;;;;;;;2.83;1.70;;;17.30;64.70;17.70;99083.00;;;;4969163;28;20209;-42
2022/09/27 08:21:29;;;;;;;4.87;1.60;;;17.40;64.30;17.80;99089.00;;;;4969859;28;20259;-43
2022/09/27 08:23:57;;;;;;;5.77;1.57;;;17.50;64.30;17.90;99098.00;;;;4970002;28;20722;-43
2022/09/27 08:26:23;;;;;;;2.90;1.70;;;17.50;64.10;17.90;99085.00;;;;4969250;28;20174;-43
2022/09/27 08:28:49;;;;;;;2.93;1.40;;;17.60;64.20;18.00;99089.00;;;;4970603;28;20178;-43
2022/09/27 08:31:14;;;;;;;2.73;1.43;;;17.60;64.20;18.10;99090.00;;;;4970363;28;20173;-43
2022/09/27 08:33:40;;;;;;;3.93;1.70;;;17.60;64.40;18.10;99086.00;;;;4968869;28;20196;-42
2022/09/27 08:36:12;;;;;;;4.60;1.33;;;17.60;64.90;18.10;99096.00;;;;4970462;28;20206;-43
2022/09/27 08:38:38;;;;;;;2.20;1.50;;;17.60;64.90;18.10;99097.00;;;;4970216;28;20185;-42
2022/09/27 08:41:34;;;;;;;2.80;1.60;;;17.60;64.90;18.20;99100.00;;;;4978601;28;20178;-42
2022/09/27 08:44:57;;;;;;;2.23;1.60;;;17.60;65.00;18.20;99098.00;;;;4988654;28;20158;-43
2022/09/27 08:47:34;;;;;;;4.17;1.57;;;17.60;65.20;18.20;99097.00;;;;4929054;29;20252;-43
2022/09/27 08:50:25;;;;;;;3.63;1.50;;;17.60;65.30;18.20;99104.00;;;;4972514;28;20216;-42
2022/09/27 08:53:20;;;;;;;4.50;1.60;;;17.70;65.40;18.20;99100.00;;;;4988516;28;20161;-42
2022/09/27 08:55:56;;;;;;;3.17;1.33;;;17.60;65.40;18.20;99098.00;;;;4987808;28;20236;-41
2022/09/27 08:58:34;;;;;;;1.60;1.17;;;17.60;65.60;18.20;99103.00;;;;4988456;28;20183;-42
2022/09/27 09:01:03;;;;;;;5.00;1.47;;;17.60;65.60;18.20;99111.00;;;;4967285;28;20176;-42
2022/09/27 09:03:35;;;;;;;3.73;1.27;;;17.60;65.60;18.30;99112.00;;;;4961703;28;20353;-42
2022/09/27 09:06:35;;;;;;;1.40;1.30;;;17.70;65.60;18.30;99112.00;;;;4827090;28;20235;-42
2022/09/27 09:09:47;;;;;;;1.90;1.30;;;17.70;65.50;18.30;99119.00;;;;4969409;28;20169;-41
2022/09/27 09:12:48;;;;;;;2.27;1.30;;;17.70;65.60;18.30;99105.00;;;;4977337;28;20207;-43
2022/09/27 09:15:53;;;;;;;2.17;1.23;;;17.70;65.80;18.30;99089.00;;;;4989413;28;20234;-42
2022/09/27 09:18:30;;;;;;;2.87;1.53;;;17.70;65.80;18.30;99110.00;;;;4987419;28;20160;-42
2022/09/27 09:21:23;;;;;;;2.47;1.57;;;17.70;65.80;18.30;99107.00;;;;4988000;28;20266;-42
2022/09/27 09:24:48;;;;;;;3.00;1.50;;;17.70;66.20;18.30;99092.00;;;;4988716;28;20407;-42
2022/09/27 09:27:27;;;;;;;2.83;1.40;;;17.70;66.70;18.30;99103.00;;;;4955441;28;20191;-42
2022/09/27 09:30:19;;;;;;;1.30;1.20;;;17.70;66.40;18.30;99093.00;;;;4988381;28;20153;-42
2022/09/27 09:33:01;;;;;;;1.93;1.50;;;17.80;66.40;18.30;99099.00;;;;4987785;28;20157;-42
2022/09/27 09:35:36;;;;;;;1.63;1.40;;;17.80;66.30;18.30;99089.00;;;;4987757;28;20191;-42
2022/09/27 09:38:05;;;;;;;4.63;1.43;;;17.80;66.30;18.30;99093.00;;;;4975565;28;20158;-42
2022/09/27 09:40:39;;;;;;;2.57;1.30;;;17.80;66.40;18.30;99067.00;;;;4976145;28;20760;-41
2022/09/27 09:43:29;;;;;;;3.40;1.30;;;17.80;66.30;18.40;99092.00;;;;4976859;28;20192;-42
2022/09/27 09:46:01;;;;;;;1.03;1.00;;;17.80;66.30;18.40;99098.00;;;;4992103;28;20198;-42
2022/09/27 09:48:45;;;;;;;4.27;1.50;;;17.80;66.20;18.40;99087.00;;;;4975456;28;20173;-43
2022/09/27 09:51:19;;;;;;;3.33;1.40;;;17.80;66.20;18.40;99077.00;;;;4992002;28;20187;-42
2022/09/27 09:54:35;;;;;;;3.33;1.23;;;17.90;66.30;18.40;99087.00;;;;4976439;28;20192;-42
2022/09/27 09:57:14;;;;;;;2.17;1.27;;;17.80;66.20;18.40;99088.00;;;;4983259;28;20197;-43
2022/09/27 10:00:05;;;;;;;2.80;1.53;;;17.90;67.00;18.40;99071.00;;;;4992066;28;20711;-43
2022/09/27 10:02:38;;;;;;;1.37;1.20;;;18.00;67.60;18.40;99069.00;;;;4976273;28;20796;-43
2022/09/27 10:05:05;;;;;;;2.50;1.20;;;18.00;66.70;18.40;99070.00;;;;4971622;28;20186;-42
2022/09/27 10:07:31;;;;;;;4.70;1.10;;;18.00;66.90;18.50;99070.00;;;;4971479;28;20173;-43
2022/09/27 10:09:59;;;;;;;10.33;1.90;;;18.00;66.70;18.50;99055.00;;;;4972618;28;20845;-43
2022/09/27 10:12:25;;;;;;;3.83;1.53;;;17.90;66.60;18.50;99071.00;;;;4971668;28;20183;-43
2022/09/27 10:14:52;;;;;;;7.97;1.43;;;18.00;66.70;18.50;99075.00;;;;4971796;28;20202;-44
2022/09/27 10:17:20;;;;;;;6.27;1.53;;;18.00;66.60;18.50;99063.00;;;;4971973;28;20189;-42
2022/09/27 10:19:47;;;;;;;8.80;1.60;;;18.00;67.30;18.50;99079.00;;;;4971757;28;20196;-42
2022/09/27 10:22:35;;;;;;;4.93;1.40;;;18.00;67.60;18.60;99072.00;;;;4972717;28;20177;-43
2022/09/27 10:25:06;;;;;;;10.17;1.53;;;18.00;66.90;18.60;99070.00;;;;4971662;28;20206;-42
2022/09/27 10:28:01;;;;;;;11.47;2.00;;;18.00;67.40;18.60;99060.00;;;;4954769;28;20766;-42
2022/09/27 10:30:32;;;;;;;5.77;1.50;;;18.10;67.00;18.60;99062.00;;;;4967473;28;20216;-42
2022/09/27 10:33:02;;;;;;;5.13;1.40;;;18.00;66.80;18.60;99063.00;;;;4936983;29;20236;-43
2022/09/27 10:35:28;;;;;;;7.00;1.87;;;18.10;66.80;18.60;99068.00;;;;4952001;29;20697;-42
2022/09/27 10:38:17;;;;;;;8.50;1.60;;;18.10;66.60;18.60;99073.00;;;;4953569;28;20177;-42
2022/09/27 10:40:43;;;;;;;3.07;1.47;;;18.10;66.60;18.60;99076.00;;;;4952319;28;20197;-43
2022/09/27 10:43:29;;;;;;;6.13;1.70;;;18.00;66.70;18.60;99073.00;;;;4952046;29;20176;-43
2022/09/27 10:46:27;;;;;;;3.97;1.40;;;18.10;67.30;18.60;99061.00;;;;4953388;29;20199;-42
2022/09/27 10:49:32;;;;;;;4.53;1.47;;;18.10;67.20;18.60;99064.00;;;;4967360;28;20593;-42
2022/09/27 10:52:01;;;;;;;5.40;1.60;;;18.10;67.40;18.60;99050.00;;;;4934390;29;20900;-42
2022/09/27 10:54:34;;;;;;;7.37;1.80;;;18.10;67.30;18.60;99063.00;;;;4932680;29;20281;-43
2022/09/27 10:57:27;;;;;;;5.80;1.63;;;18.10;67.30;18.70;99059.00;;;;4951599;28;20185;-42
2022/09/27 11:00:24;;;;;;;2.20;1.30;;;18.10;66.90;18.60;99034.00;;;;4952900;28;20217;-42
2022/09/27 11:03:05;;;;;;;5.00;1.63;;;18.10;67.20;18.60;99058.00;;;;4938861;29;20158;-42
2022/09/27 11:05:35;;;;;;;3.13;1.50;;;18.00;67.10;18.60;99042.00;;;;4951347;29;20203;-42
2022/09/27 11:08:22;;;;;;;1.93;1.40;;;18.10;67.30;18.60;99054.00;;;;4958146;28;20210;-42
2022/09/27 11:11:13;;;;;;;4.67;1.40;;;18.00;67.10;18.60;99044.00;;;;4951891;29;20756;-43
2022/09/27 11:13:39;;;;;;;4.40;1.70;;;18.00;67.10;18.60;99036.00;;;;4953041;28;20514;-43
2022/09/27 11:16:23;;;;;;;3.00;1.40;;;18.00;67.00;18.60;99057.00;;;;4935599;29;20206;-43
2022/09/27 11:19:22;;;;;;;5.73;1.53;;;18.00;66.80;18.60;99059.00;;;;4952714;28;20184;-43
2022/09/27 11:21:57;;;;;;;4.47;1.50;;;18.00;66.50;18.60;99064.00;;;;4953047;29;20187;-42
2022/09/27 11:25:02;;;;;;;4.63;1.60;;;17.90;66.80;18.60;99053.00;;;;4935565;29;20675;-43
2022/09/27 11:27:46;;;;;;;3.83;1.30;;;18.00;67.10;18.60;99058.00;;;;4952840;28;20158;-43